createdAt,value
2023-02-05T00:02:18.179Z,8.30
2023-02-05T00:05:20.794Z,5.37
2023-02-05T00:08:23.030Z,2.22
2023-02-05T00:11:26.219Z,3.05
2023-02-05T00:14:28.825Z,3.85
2023-02-05T00:17:31.534Z,4.28
2023-02-05T00:20:33.947Z,2.72
2023-02-05T00:23:36.872Z,3.25
2023-02-05T00:26:41.311Z,3.62
2023-02-05T00:29:43.913Z,5.25
2023-02-05T00:32:46.210Z,2.58
2023-02-05T00:35:49.103Z,3.50
2023-02-05T00:38:52.046Z,3.20
2023-02-05T00:41:54.663Z,4.37
2023-02-05T00:44:56.899Z,2.42
2023-02-05T00:48:09.728Z,3.47
2023-02-05T00:51:12.446Z,1.85
2023-02-05T00:54:15.025Z,3.75
2023-02-05T00:57:17.277Z,2.30
2023-02-05T01:00:20.129Z,2.92
2023-02-05T01:03:22.349Z,3.70
2023-02-05T01:06:24.916Z,6.65
2023-02-05T01:09:27.166Z,4.75
2023-02-05T01:12:29.820Z,2.25
2023-02-05T01:15:32.449Z,1.98
2023-02-05T01:18:35.305Z,3.03
2023-02-05T01:21:37.576Z,3.33
2023-02-05T01:24:40.178Z,2.72
2023-02-05T01:27:42.457Z,2.28
2023-02-05T01:30:49.725Z,2.25
2023-02-05T01:33:52.114Z,5.22
2023-02-05T01:36:54.740Z,2.75
2023-02-05T01:39:58.064Z,2.67
2023-02-05T01:43:00.686Z,3.58
2023-02-05T01:46:24.824Z,4.50
2023-02-05T01:49:43.703Z,3.65
2023-02-05T01:52:46.257Z,3.05
2023-02-05T01:55:59.255Z,1.85
2023-02-05T01:59:17.757Z,2.78
2023-02-05T02:02:21.621Z,2.20
2023-02-05T02:05:24.268Z,5.87
2023-02-05T02:08:26.870Z,4.35
2023-02-05T02:11:32.213Z,3.08
2023-02-05T02:14:37.262Z,4.37
2023-02-05T02:17:45.417Z,3.05
2023-02-05T02:21:03.930Z,3.05
2023-02-05T02:24:09.554Z,4.57
2023-02-05T02:27:30.727Z,4.55
2023-02-05T02:30:47.886Z,4.72
2023-02-05T02:34:02.586Z,4.18
2023-02-05T02:37:18.997Z,5.10
2023-02-05T02:40:29.347Z,2.28
2023-02-05T02:43:48.256Z,3.22
2023-02-05T02:46:59.533Z,3.83
2023-02-05T02:50:12.042Z,4.70
2023-02-05T02:53:22.113Z,1.75
2023-02-05T02:56:27.628Z,3.40
2023-02-05T02:59:33.810Z,2.70
2023-02-05T03:02:38.346Z,3.05
2023-02-05T03:05:43.888Z,5.97
2023-02-05T03:08:58.276Z,4.45
2023-02-05T03:12:00.757Z,2.33
2023-02-05T03:15:05.814Z,1.80
2023-02-05T03:18:08.959Z,2.97
2023-02-05T03:21:17.732Z,3.12
2023-02-05T03:24:20.118Z,2.23
2023-02-05T03:27:23.981Z,3.17
2023-02-05T03:30:36.685Z,7.93
2023-02-05T03:34:24.360Z,2.62
2023-02-05T03:37:40.500Z,3.83
2023-02-05T03:40:55.067Z,3.78
2023-02-05T03:44:13.314Z,2.15
2023-02-05T03:47:40.581Z,5.75
2023-02-05T03:51:02.691Z,2.42
2023-02-05T03:54:13.010Z,5.15
2023-02-05T03:57:35.701Z,4.03
2023-02-05T04:00:40.475Z,4.95
2023-02-05T04:03:43.356Z,2.97
2023-02-05T04:06:54.042Z,3.65
2023-02-05T04:09:57.511Z,2.30
2023-02-05T04:12:59.900Z,4.97
2023-02-05T04:16:02.748Z,5.87
2023-02-05T04:19:05.071Z,6.55
2023-02-05T04:22:07.790Z,2.55
2023-02-05T04:25:10.532Z,5.05
2023-02-05T04:28:13.796Z,2.72
2023-02-05T04:31:16.638Z,3.47
2023-02-05T04:34:19.982Z,3.70
2023-02-05T04:37:22.627Z,3.47
2023-02-05T04:40:25.268Z,3.08
2023-02-05T04:43:27.841Z,5.28
2023-02-05T04:46:30.415Z,3.85
2023-02-05T04:49:33.552Z,2.92
2023-02-05T04:52:36.272Z,4.53
2023-02-05T04:55:38.559Z,3.22
2023-02-05T04:58:41.284Z,5.32
2023-02-05T05:01:43.558Z,4.30
2023-02-05T05:04:46.082Z,2.55
2023-02-05T05:07:48.963Z,3.40
2023-02-05T05:10:51.549Z,2.95
2023-02-05T05:13:53.835Z,3.67
2023-02-05T05:16:56.523Z,2.75
2023-02-05T05:19:58.768Z,4.22
2023-02-05T05:23:01.425Z,3.65
2023-02-05T05:26:06.470Z,4.07
2023-02-05T05:29:11.366Z,3.62
2023-02-05T05:32:14.017Z,3.53
2023-02-05T05:35:17.201Z,3.67
2023-02-05T05:38:19.612Z,3.85
2023-02-05T05:41:43.451Z,4.97
2023-02-05T05:44:50.152Z,2.35
2023-02-05T05:47:52.955Z,2.50
2023-02-05T05:50:55.265Z,4.30
2023-02-05T05:53:57.835Z,3.25
2023-02-05T05:57:00.097Z,4.43
2023-02-05T06:00:02.939Z,5.20
2023-02-05T06:03:14.315Z,3.60
2023-02-05T06:06:16.978Z,4.03
2023-02-05T06:09:21.616Z,6.80
2023-02-05T06:12:24.143Z,4.65
2023-02-05T06:15:29.198Z,2.40
2023-02-05T06:18:31.812Z,5.85
2023-02-05T06:21:34.097Z,3.67
2023-02-05T06:24:36.607Z,3.75
2023-02-05T06:27:38.980Z,4.75
2023-02-05T06:30:41.576Z,5.47
2023-02-05T06:33:44.572Z,3.10
2023-02-05T06:36:47.129Z,5.45
2023-02-05T06:39:49.345Z,3.95
2023-02-05T06:42:55.442Z,2.70
2023-02-05T06:45:57.695Z,4.18
2023-02-05T06:49:00.296Z,8.05
2023-02-05T06:52:02.791Z,4.35
2023-02-05T06:55:05.845Z,5.20
2023-02-05T06:58:08.057Z,6.85
2023-02-05T07:01:10.679Z,3.83
2023-02-05T07:04:12.971Z,4.53
2023-02-05T07:07:17.156Z,7.87
2023-02-05T07:10:20.032Z,4.05
2023-02-05T07:13:22.671Z,3.70
2023-02-05T07:16:24.957Z,4.80
2023-02-05T07:19:27.615Z,3.10
2023-02-05T07:22:29.828Z,2.47
2023-02-05T07:25:37.884Z,4.62
2023-02-05T07:28:41.004Z,4.53
2023-02-05T07:31:43.784Z,5.40
2023-02-05T07:34:46.004Z,5.05
2023-02-05T07:37:48.602Z,4.35
2023-02-05T07:40:51.502Z,3.45
2023-02-05T07:43:57.205Z,5.22
2023-02-05T07:46:59.609Z,4.10
2023-02-05T07:50:02.414Z,4.75
2023-02-05T07:53:04.641Z,3.62
2023-02-05T07:56:07.434Z,6.70
2023-02-05T07:59:10.000Z,4.35
2023-02-05T08:02:13.184Z,5.20
2023-02-05T08:05:15.827Z,3.53
2023-02-05T08:08:18.096Z,4.75
2023-02-05T08:11:20.730Z,4.47
2023-02-05T08:14:22.985Z,4.10
2023-02-05T08:17:25.502Z,4.03
2023-02-05T08:20:27.839Z,4.35
2023-02-05T08:23:30.587Z,3.33
2023-02-05T08:26:32.937Z,4.05
2023-02-05T08:29:35.540Z,4.35
2023-02-05T08:32:37.780Z,4.22
2023-02-05T08:35:40.357Z,3.53
2023-02-05T08:38:42.653Z,3.08
2023-02-05T08:41:45.213Z,3.15
2023-02-05T08:44:48.997Z,8.48
2023-02-05T08:47:51.614Z,11.30
2023-02-05T08:50:53.890Z,4.32
2023-02-05T08:53:56.697Z,2.75
2023-02-05T08:56:58.866Z,4.62
2023-02-05T09:00:01.399Z,3.35
2023-02-05T09:03:04.603Z,7.75
2023-02-05T09:06:09.934Z,4.05
2023-02-05T09:09:12.624Z,4.82
2023-02-05T09:12:15.128Z,5.40
2023-02-05T09:15:17.349Z,6.12
2023-02-05T09:18:20.432Z,3.75
2023-02-05T09:21:23.652Z,3.72
2023-02-05T09:24:26.281Z,3.58
2023-02-05T09:27:28.647Z,4.62
2023-02-05T09:30:31.157Z,3.40
2023-02-05T09:33:33.526Z,3.35
2023-02-05T09:36:36.117Z,2.97
2023-02-05T09:43:29.732Z,3.95
2023-02-05T09:46:58.772Z,3.00
2023-02-05T09:50:09.890Z,3.90
2023-02-05T09:53:19.323Z,3.28
2023-02-05T09:56:24.484Z,4.35
2023-02-05T09:59:28.234Z,2.10
2023-02-05T10:02:49.950Z,4.68
2023-02-05T10:06:12.321Z,3.83
2023-02-05T10:09:39.287Z,5.45
2023-02-05T10:13:21.733Z,6.22
2023-02-05T10:16:33.190Z,2.53
2023-02-05T10:20:08.838Z,3.55
2023-02-05T10:23:12.246Z,3.12
2023-02-05T10:26:17.808Z,1.87
2023-02-05T10:29:34.968Z,6.40
2023-02-05T10:32:57.882Z,5.18
2023-02-05T10:36:03.892Z,6.37
2023-02-05T10:39:14.574Z,4.80
2023-02-05T10:42:36.231Z,3.17
2023-02-05T10:45:39.174Z,4.87
2023-02-05T10:48:47.656Z,3.90
2023-02-05T10:51:50.330Z,4.40
2023-02-05T10:54:52.716Z,4.32
2023-02-05T10:57:55.287Z,4.28
2023-02-05T11:00:58.661Z,4.75
2023-02-05T11:04:05.964Z,4.53
2023-02-05T11:07:13.971Z,5.90
2023-02-05T11:10:20.943Z,3.07
2023-02-05T11:13:24.546Z,5.10
2023-02-05T11:16:42.279Z,3.22
2023-02-05T11:19:56.011Z,7.43
2023-02-05T11:23:18.630Z,3.00
2023-02-05T11:26:23.491Z,3.60
2023-02-05T11:29:26.039Z,3.40
2023-02-05T11:32:38.601Z,3.12
2023-02-05T11:35:41.654Z,3.62
2023-02-05T11:38:45.599Z,3.17
2023-02-05T11:41:48.677Z,5.07
2023-02-05T11:45:00.487Z,4.25
2023-02-05T11:48:20.473Z,3.92
2023-02-05T11:51:34.861Z,4.68
2023-02-05T11:54:39.312Z,4.62
2023-02-05T11:57:42.176Z,2.33
2023-02-05T12:00:57.759Z,3.40
2023-02-05T12:04:17.269Z,2.72
2023-02-05T12:07:21.884Z,2.37
2023-02-05T12:10:38.281Z,5.20
2023-02-05T12:13:53.074Z,2.65
2023-02-05T12:17:07.831Z,4.43
2023-02-05T12:20:21.605Z,3.40
2023-02-05T12:23:45.458Z,3.15
2023-02-05T12:26:52.727Z,2.33
2023-02-05T12:29:58.221Z,3.92
2023-02-05T12:33:12.740Z,3.70
2023-02-05T12:36:28.948Z,3.12
2023-02-05T12:39:39.508Z,2.35
2023-02-05T12:42:55.027Z,5.47
2023-02-05T12:46:25.147Z,3.70
2023-02-05T12:49:54.636Z,4.60
2023-02-05T12:53:44.304Z,3.05
2023-02-05T12:57:01.718Z,3.25
2023-02-05T13:00:11.659Z,2.70
2023-02-05T13:03:38.805Z,3.78
2023-02-05T13:06:47.250Z,4.37
2023-02-05T13:09:56.557Z,3.35
2023-02-05T13:13:04.156Z,3.58
2023-02-05T13:16:11.387Z,4.00
2023-02-05T13:19:32.115Z,3.33
2023-02-05T13:22:58.029Z,4.90
2023-02-05T13:26:20.794Z,2.62
2023-02-05T13:29:27.027Z,2.37
2023-02-05T13:32:34.253Z,6.55
2023-02-05T13:36:03.673Z,2.95
2023-02-05T13:39:34.285Z,2.47
2023-02-05T13:42:58.746Z,6.35
2023-02-05T13:46:28.038Z,5.45
2023-02-05T13:49:49.331Z,5.53
2023-02-05T13:53:11.956Z,3.40
2023-02-05T13:57:02.110Z,3.47
2023-02-05T14:00:06.090Z,4.78
2023-02-05T14:03:27.343Z,3.08
2023-02-05T14:06:33.515Z,2.85
2023-02-05T14:09:40.503Z,4.72
2023-02-05T14:12:43.269Z,2.75
2023-02-05T14:15:46.257Z,4.80
2023-02-05T14:19:03.064Z,2.65
2023-02-05T14:22:10.219Z,5.05
2023-02-05T14:25:46.145Z,2.83
2023-02-05T14:28:51.092Z,3.58
2023-02-05T14:31:53.726Z,3.62
2023-02-05T14:35:05.770Z,2.70
2023-02-05T14:38:28.827Z,3.83
2023-02-05T14:41:40.604Z,3.85
2023-02-05T14:44:44.445Z,3.47
2023-02-05T14:47:46.813Z,1.73
2023-02-05T14:51:18.920Z,2.40
2023-02-05T14:54:23.965Z,5.43
2023-02-05T14:57:35.613Z,3.92
2023-02-05T15:00:41.797Z,3.97
2023-02-05T15:03:45.371Z,3.22
2023-02-05T15:06:48.493Z,2.78
2023-02-05T15:10:04.395Z,4.25
2023-02-05T15:13:18.412Z,3.30
2023-02-05T15:16:21.823Z,4.50
2023-02-05T15:19:24.170Z,2.80
2023-02-05T15:22:35.024Z,3.37
2023-02-05T15:26:01.541Z,5.47
2023-02-05T15:29:14.349Z,3.55
2023-02-05T15:32:28.026Z,4.53
2023-02-05T15:35:32.971Z,2.85
2023-02-05T15:38:44.301Z,4.03
2023-02-05T15:41:47.954Z,3.37
2023-02-05T15:44:50.254Z,4.60
2023-02-05T15:48:06.786Z,3.70
2023-02-05T15:51:36.172Z,2.65
2023-02-05T15:54:38.729Z,6.57
2023-02-05T15:57:41.069Z,3.87
2023-02-05T16:00:45.845Z,5.90
2023-02-05T16:03:48.380Z,2.92
2023-02-05T16:06:50.620Z,6.28
2023-02-05T16:09:59.995Z,4.50
2023-02-05T16:13:07.820Z,5.78
2023-02-05T16:16:24.245Z,3.90
2023-02-05T16:19:54.511Z,4.50
2023-02-05T16:26:14.583Z,3.92
2023-02-05T16:29:39.006Z,4.95
2023-02-05T16:32:48.880Z,5.82
2023-02-05T16:35:52.328Z,5.40
2023-02-05T16:39:01.371Z,5.35
2023-02-05T16:42:15.422Z,6.80
2023-02-05T16:45:21.209Z,5.37
2023-02-05T16:48:27.182Z,4.25
2023-02-05T16:51:35.625Z,6.22
2023-02-05T16:54:41.768Z,6.03
2023-02-05T16:57:47.533Z,9.75
2023-02-05T17:00:56.411Z,4.68
2023-02-05T17:03:58.920Z,8.65
2023-02-05T17:07:03.026Z,8.68
2023-02-05T17:10:13.979Z,7.50
2023-02-05T17:13:28.317Z,6.82
2023-02-05T17:16:32.140Z,8.40
2023-02-05T17:19:34.899Z,5.65
2023-02-05T17:22:37.174Z,6.57
2023-02-05T17:25:51.350Z,7.40
2023-02-05T17:28:57.634Z,10.63
2023-02-05T17:32:00.225Z,8.85
2023-02-05T17:35:02.430Z,9.68
2023-02-05T17:38:05.033Z,11.32
2023-02-05T17:41:33.801Z,8.63
2023-02-05T17:44:36.629Z,8.57
2023-02-05T17:47:38.891Z,8.20
2023-02-05T17:50:41.448Z,9.93
2023-02-05T17:53:43.740Z,8.95
2023-02-05T17:56:48.240Z,5.72
2023-02-05T17:59:50.726Z,6.75
2023-02-05T18:02:53.832Z,10.25
2023-02-05T18:05:58.239Z,11.63
2023-02-05T18:09:00.525Z,10.02
2023-02-05T18:12:03.069Z,7.20
2023-02-05T18:15:05.839Z,10.27
2023-02-05T18:18:08.838Z,11.30
2023-02-05T18:21:11.144Z,8.85
2023-02-05T18:24:13.697Z,10.77
2023-02-05T18:27:15.996Z,12.20
2023-02-05T18:30:18.640Z,9.45
2023-02-05T18:33:20.911Z,8.15
2023-02-05T18:36:24.013Z,10.15
2023-02-05T18:39:28.558Z,8.43
2023-02-05T18:42:31.137Z,11.32
2023-02-05T18:45:33.382Z,13.43
2023-02-05T18:48:37.129Z,10.30
2023-02-05T18:51:39.324Z,19.15
2023-02-05T18:54:41.861Z,14.30
2023-02-05T18:57:44.190Z,16.70
2023-02-05T19:00:46.721Z,11.57
2023-02-05T19:03:48.984Z,16.27
2023-02-05T19:06:55.605Z,13.15
2023-02-05T19:09:58.188Z,14.40
2023-02-05T19:13:00.736Z,9.18
2023-02-05T19:16:13.948Z,10.57
2023-02-05T19:19:20.124Z,18.23
2023-02-05T19:22:22.507Z,10.68
2023-02-05T19:25:25.039Z,9.35
2023-02-05T19:28:27.287Z,10.32
2023-02-05T19:31:32.844Z,15.20
2023-02-05T19:34:35.811Z,13.18
2023-02-05T19:37:38.334Z,11.40
2023-02-05T19:40:40.560Z,10.38
2023-02-05T19:43:52.518Z,11.38
2023-02-05T19:46:54.775Z,13.73
2023-02-05T19:49:57.421Z,10.40
2023-02-05T19:53:01.112Z,8.95
2023-02-05T19:56:07.026Z,11.20
2023-02-05T19:59:10.040Z,9.95
2023-02-05T20:02:16.282Z,12.98
2023-02-05T20:05:19.821Z,8.32
2023-02-05T20:08:22.050Z,12.52
2023-02-05T20:11:24.558Z,11.77
2023-02-05T20:14:27.199Z,9.18
2023-02-05T20:17:29.739Z,12.32
2023-02-05T20:20:33.837Z,12.30
2023-02-05T20:23:37.164Z,13.32
2023-02-05T20:26:39.691Z,14.02
2023-02-05T20:30:00.864Z,9.88
2023-02-05T20:33:03.096Z,17.55
2023-02-05T20:36:12.119Z,16.17
2023-02-05T20:39:17.206Z,12.77
2023-02-05T20:42:21.589Z,16.40
2023-02-05T20:45:23.847Z,21.48
2023-02-05T20:48:26.417Z,21.83
2023-02-05T20:51:29.057Z,25.02
2023-02-05T20:54:31.804Z,21.83
2023-02-05T20:57:34.092Z,26.65
2023-02-05T21:00:37.350Z,21.77
2023-02-05T21:03:43.339Z,18.35
2023-02-05T21:06:46.549Z,20.35
2023-02-05T21:09:48.754Z,18.40
2023-02-05T21:12:51.290Z,20.67
2023-02-05T21:15:59.058Z,21.33
2023-02-05T21:19:02.966Z,22.37
2023-02-05T21:22:05.203Z,25.00
2023-02-05T21:25:08.045Z,26.00
2023-02-05T21:28:10.789Z,26.12
2023-02-05T21:31:13.704Z,25.27
2023-02-05T21:34:18.888Z,20.65
2023-02-05T21:37:21.436Z,25.30
2023-02-05T21:40:23.760Z,19.85
2023-02-05T21:43:26.323Z,21.25
2023-02-05T21:46:29.919Z,29.05
2023-02-05T21:49:32.439Z,27.98
2023-02-05T21:52:34.738Z,23.73
2023-02-05T21:55:37.277Z,27.37
2023-02-05T21:58:40.633Z,18.50
2023-02-05T22:01:43.387Z,20.17
2023-02-05T22:04:46.219Z,20.52
2023-02-05T22:07:48.606Z,26.77
2023-02-05T22:10:51.876Z,21.70
2023-02-05T22:13:55.539Z,16.87
2023-02-05T22:16:58.205Z,21.73
2023-02-05T22:20:00.460Z,21.85
2023-02-05T22:23:03.002Z,19.55
2023-02-05T22:26:06.596Z,24.17
2023-02-05T22:29:12.465Z,22.37
2023-02-05T22:32:14.752Z,20.02
2023-02-05T22:35:17.431Z,20.20
2023-02-05T22:38:19.755Z,23.52
2023-02-05T22:41:29.282Z,21.98
2023-02-05T22:47:33.802Z,18.45
2023-02-05T22:50:43.713Z,26.55
2023-02-05T22:53:48.754Z,27.73
2023-02-05T22:56:51.079Z,24.58
2023-02-05T22:59:54.325Z,41.03
2023-02-05T23:02:57.942Z,29.48
2023-02-05T23:06:00.517Z,35.83
2023-02-05T23:09:06.935Z,33.55
2023-02-05T23:12:09.563Z,28.20
2023-02-05T23:15:12.090Z,25.67
2023-02-05T23:18:14.827Z,48.47
2023-02-05T23:21:20.442Z,34.15
2023-02-05T23:24:23.038Z,34.33
2023-02-05T23:27:27.098Z,31.80
2023-02-05T23:30:30.209Z,29.73
2023-02-05T23:33:33.785Z,27.10
2023-02-05T23:36:36.687Z,23.20
2023-02-05T23:39:38.949Z,21.92
2023-02-05T23:42:41.733Z,28.23
2023-02-05T23:45:44.074Z,19.02
2023-02-05T23:48:46.649Z,26.62
2023-02-05T23:51:50.078Z,27.30
2023-02-05T23:54:52.834Z,22.62
